AJX121 RJAA-RKSI
Flight info
| Callsign | AJX121 |
|---|---|
| Flight time | N/A |
| Altitude | 40000 |
| Route | ENPAR Y16 SAPRA Y685 GUKDO GUKDO3C |
| Aircraft | A346/H-SDE2E3FGHIJ3J4J5M1RWXY/LB1D1 |
Departure
| Time | 2026-05-01 15:31 |
|---|---|
| Airport | Narita International Airport (RJAA) |
Arrival
| Time | N/A |
|---|---|
| Airport | Incheon International Airport (RKSI) |
| Time | Latitude | Longitude | Altitude | Speed | Heading |
|---|---|---|---|---|---|
| 2026-05-01 14:00 | 35.75911 | 140.38750 | 153 ft | 0 kts | 291° |
| 2026-05-01 15:16 | 35.75901 | 140.38787 | 153 ft | 4 kts | 281° |
| 2026-05-01 15:17 | 35.75902 | 140.38849 | 153 ft | 4 kts | 249° |
| 2026-05-01 15:18 | 35.75927 | 140.38883 | 153 ft | 0 kts | 201° |
| 2026-05-01 15:23 | 35.75922 | 140.38880 | 153 ft | 2 kts | 201° |
| 2026-05-01 15:23 | 35.75916 | 140.38878 | 153 ft | 3 kts | 201° |
| 2026-05-01 15:24 | 35.75887 | 140.38863 | 153 ft | 6 kts | 201° |
| 2026-05-01 15:24 | 35.75836 | 140.38839 | 153 ft | 9 kts | 195° |
| 2026-05-01 15:24 | 35.75766 | 140.38844 | 153 ft | 11 kts | 165° |
| 2026-05-01 15:24 | 35.75681 | 140.38856 | 153 ft | 13 kts | 188° |
| 2026-05-01 15:25 | 35.75589 | 140.38815 | 154 ft | 15 kts | 204° |
| 2026-05-01 15:25 | 35.75489 | 140.38762 | 154 ft | 17 kts | 202° |
| 2026-05-01 15:25 | 35.75374 | 140.38703 | 154 ft | 19 kts | 203° |
| 2026-05-01 15:25 | 35.75297 | 140.38668 | 154 ft | 10 kts | 188° |
| 2026-05-01 15:26 | 35.75223 | 140.38690 | 154 ft | 12 kts | 153° |
| 2026-05-01 15:26 | 35.75144 | 140.38745 | 155 ft | 14 kts | 149° |
| 2026-05-01 15:26 | 35.75056 | 140.38809 | 155 ft | 15 kts | 149° |
| 2026-05-01 15:26 | 35.74960 | 140.38878 | 156 ft | 17 kts | 150° |
| 2026-05-01 15:27 | 35.74849 | 140.38957 | 156 ft | 19 kts | 149° |
| 2026-05-01 15:27 | 35.74727 | 140.39047 | 156 ft | 21 kts | 149° |
| 2026-05-01 15:27 | 35.74637 | 140.39108 | 156 ft | 11 kts | 163° |
| 2026-05-01 15:28 | 35.74583 | 140.39098 | 156 ft | 0 kts | 213° |
| 2026-05-01 15:28 | 35.74582 | 140.39097 | 156 ft | 1 kts | 214° |
| 2026-05-01 15:28 | 35.74571 | 140.39085 | 156 ft | 3 kts | 224° |
| 2026-05-01 15:29 | 35.74529 | 140.38983 | 155 ft | 10 kts | 274° |
| 2026-05-01 15:29 | 35.74573 | 140.38911 | 155 ft | 12 kts | 322° |
| 2026-05-01 15:29 | 35.74625 | 140.38869 | 156 ft | 0 kts | 328° |
| 2026-05-01 15:30 | 35.75093 | 140.38523 | 154 ft | 98 kts | 329° |
| 2026-05-01 15:31 | 35.79208 | 140.35626 | 1348 ft | 195 kts | 325° |
| 2026-05-01 15:31 | 35.81579 | 140.33920 | 2351 ft | 205 kts | 325° |
| 2026-05-01 15:32 | 35.84216 | 140.31941 | 2938 ft | 239 kts | 326° |
| 2026-05-01 15:32 | 35.84708 | 140.31578 | 3051 ft | 245 kts | 326° |
| 2026-05-01 15:33 | 35.92033 | 140.26238 | 6501 ft | 255 kts | 324° |
| 2026-05-01 15:34 | 35.96674 | 140.22907 | 6958 ft | 260 kts | 333° |